sensor_id;sensor_type;location;lat;lon;timestamp;pressure;altitude;pressure_sealevel;temperature;humidity
37291;BME280;23175;-33.706;151.094;2023-01-08T00:02:14;99688.89;;;20.87;33.35
37291;BME280;23175;-33.706;151.094;2023-01-08T00:04:44;99688.25;;;17.72;36.69
37291;BME280;23175;-33.706;151.094;2023-01-08T00:07:14;99688.91;;;16.46;39.77
37291;BME280;23175;-33.706;151.094;2023-01-08T00:09:44;99686.21;;;17.87;39.26
37291;BME280;23175;-33.706;151.094;2023-01-08T00:12:14;99687.53;;;18.74;38.08
37291;BME280;23175;-33.706;151.094;2023-01-08T00:14:44;99687.87;;;16.95;37.14
37291;BME280;23175;-33.706;151.094;2023-01-08T00:17:14;99679.49;;;19.79;33.80
37291;BME280;23175;-33.706;151.094;2023-01-08T00:19:44;99670.76;;;18.70;34.50
37291;BME280;23175;-33.706;151.094;2023-01-08T00:22:14;99662.36;;;19.22;32.90
37291;BME280;23175;-33.706;151.094;2023-01-08T00:24:44;99660.25;;;20.34;32.46
37291;BME280;23175;-33.706;151.094;2023-01-08T00:27:14;99654.61;;;18.50;34.46
37291;BME280;23175;-33.706;151.094;2023-01-08T00:29:44;99650.41;;;20.35;31.53
37291;BME280;23175;-33.706;151.094;2023-01-08T00:32:14;99646.11;;;20.71;31.14
37291;BME280;23175;-33.706;151.094;2023-01-08T00:34:45;99645.65;;;19.04;32.90
37291;BME280;23175;-33.706;151.094;2023-01-08T00:37:15;99646.18;;;21.17;32.49
37291;BME280;23175;-33.706;151.094;2023-01-08T00:39:45;99642.02;;;18.61;33.23
37291;BME280;23175;-33.706;151.094;2023-01-08T00:42:15;99635.65;;;20.27;31.98
37291;BME280;23175;-33.706;151.094;2023-01-08T00:44:45;99635.26;;;20.20;33.42
37291;BME280;23175;-33.706;151.094;2023-01-08T00:47:15;99636.78;;;18.38;35.46
37291;BME280;23175;-33.706;151.094;2023-01-08T00:49:45;99636.94;;;17.94;34.19
37291;BME280;23175;-33.706;151.094;2023-01-08T00:52:15;99635.42;;;21.27;31.57
37291;BME280;23175;-33.706;151.094;2023-01-08T00:54:44;99635.76;;;18.25;34.11
37291;BME280;23175;-33.706;151.094;2023-01-08T00:57:15;99634.64;;;18.75;32.23
37291;BME280;23175;-33.706;151.094;2023-01-08T00:59:45;99626.96;;;18.56;32.52
37291;BME280;23175;-33.706;151.094;2023-01-08T01:02:17;99625.25;;;19.25;32.34
37291;BME280;23175;-33.706;151.094;2023-01-08T01:04:47;99618.55;;;17.61;32.59
37291;BME280;23175;-33.706;151.094;2023-01-08T01:07:17;99617.16;;;19.39;32.15
37291;BME280;23175;-33.706;151.094;2023-01-08T01:09:47;99622.31;;;20.28;31.43
37291;BME280;23175;-33.706;151.094;2023-01-08T01:12:17;99620.66;;;20.04;31.06
37291;BME280;23175;-33.706;151.094;2023-01-08T01:14:47;99620.89;;;19.30;33.19
37291;BME280;23175;-33.706;151.094;2023-01-08T01:17:17;99620.35;;;20.69;29.54
37291;BME280;23175;-33.706;151.094;2023-01-08T01:19:47;99616.35;;;19.40;30.21
37291;BME280;23175;-33.706;151.094;2023-01-08T01:22:17;99612.89;;;18.52;31.80
37291;BME280;23175;-33.706;151.094;2023-01-08T01:24:47;99612.03;;;20.75;28.98
37291;BME280;23175;-33.706;151.094;2023-01-08T01:27:16;99606.28;;;19.00;30.56
37291;BME280;23175;-33.706;151.094;2023-01-08T01:29:47;99612.85;;;22.23;29.10
37291;BME280;23175;-33.706;151.094;2023-01-08T01:32:17;99611.39;;;18.66;32.37
37291;BME280;23175;-33.706;151.094;2023-01-08T01:34:47;99610.59;;;21.21;28.69
37291;BME280;23175;-33.706;151.094;2023-01-08T01:37:17;99602.06;;;20.33;30.16
37291;BME280;23175;-33.706;151.094;2023-01-08T01:39:47;99601.29;;;20.77;30.92
37291;BME280;23175;-33.706;151.094;2023-01-08T01:42:18;99594.17;;;18.46;32.86
37291;BME280;23175;-33.706;151.094;2023-01-08T01:44:48;99601.66;;;19.69;32.30
37291;BME280;23175;-33.706;151.094;2023-01-08T01:47:22;99590.10;;;19.66;30.55
37291;BME280;23175;-33.706;151.094;2023-01-08T01:49:59;99589.19;;;20.37;31.51
37291;BME280;23175;-33.706;151.094;2023-01-08T01:52:32;99586.57;;;20.19;30.05
37291;BME280;23175;-33.706;151.094;2023-01-08T01:55:04;99580.39;;;17.61;33.00
37291;BME280;23175;-33.706;151.094;2023-01-08T01:57:37;99584.96;;;21.75;28.88
37291;BME280;23175;-33.706;151.094;2023-01-08T02:00:10;99582.22;;;21.37;30.29
37291;BME280;23175;-33.706;151.094;2023-01-08T02:02:40;99581.18;;;18.71;30.90
37291;BME280;23175;-33.706;151.094;2023-01-08T02:05:10;99577.86;;;19.65;29.27
37291;BME280;23175;-33.706;151.094;2023-01-08T02:07:46;99575.25;;;19.35;31.46
37291;BME280;23175;-33.706;151.094;2023-01-08T02:10:24;99569.16;;;21.30;28.26
37291;BME280;23175;-33.706;151.094;2023-01-08T02:13:01;99566.56;;;21.81;29.15
37291;BME280;23175;-33.706;151.094;2023-01-08T02:15:37;99573.93;;;19.04;31.89
37291;BME280;23175;-33.706;151.094;2023-01-08T02:18:13;99572.75;;;20.01;30.57
37291;BME280;23175;-33.706;151.094;2023-01-08T02:20:49;99565.53;;;21.11;28.88
37291;BME280;23175;-33.706;151.094;2023-01-08T02:23:28;99568.90;;;20.57;31.95
37291;BME280;23175;-33.706;151.094;2023-01-08T02:26:10;99566.03;;;22.36;29.78
37291;BME280;23175;-33.706;151.094;2023-01-08T02:28:45;99561.98;;;22.42;28.41
37291;BME280;23175;-33.706;151.094;2023-01-08T02:31:18;99554.44;;;22.41;27.82
37291;BME280;23175;-33.706;151.094;2023-01-08T02:33:49;99557.34;;;21.41;29.35
37291;BME280;23175;-33.706;151.094;2023-01-08T02:36:29;99557.01;;;19.70;30.99
37291;BME280;23175;-33.706;151.094;2023-01-08T02:39:26;99545.51;;;22.41;28.48
37291;BME280;23175;-33.706;151.094;2023-01-08T02:42:07;99548.25;;;20.28;31.36
37291;BME280;23175;-33.706;151.094;2023-01-08T02:44:49;99544.04;;;19.16;32.89
37291;BME280;23175;-33.706;151.094;2023-01-08T02:47:26;99544.26;;;20.70;30.11
37291;BME280;23175;-33.706;151.094;2023-01-08T02:50:05;99549.10;;;19.01;32.93
37291;BME280;23175;-33.706;151.094;2023-01-08T02:52:41;99541.40;;;19.41;33.99
37291;BME280;23175;-33.706;151.094;2023-01-08T02:55:16;99538.12;;;17.51;36.87
37291;BME280;23175;-33.706;151.094;2023-01-08T02:57:47;99535.92;;;20.83;32.01
37291;BME280;23175;-33.706;151.094;2023-01-08T03:00:19;99529.67;;;21.33;30.90
37291;BME280;23175;-33.706;151.094;2023-01-08T03:02:51;99530.00;;;19.78;32.41
37291;BME280;23175;-33.706;151.094;2023-01-08T03:05:27;99533.91;;;19.51;33.47
37291;BME280;23175;-33.706;151.094;2023-01-08T03:07:57;99525.33;;;22.33;29.89
37291;BME280;23175;-33.706;151.094;2023-01-08T03:10:29;99529.31;;;21.58;31.02
37291;BME280;23175;-33.706;151.094;2023-01-08T03:13:02;99516.43;;;22.61;30.14
37291;BME280;23175;-33.706;151.094;2023-01-08T03:15:36;99524.54;;;21.20;31.01
37291;BME280;23175;-33.706;151.094;2023-01-08T03:18:11;99518.45;;;22.82;29.42
37291;BME280;23175;-33.706;151.094;2023-01-08T03:20:46;99512.73;;;22.19;30.53
37291;BME280;23175;-33.706;151.094;2023-01-08T03:23:19;99506.84;;;20.88;31.12
37291;BME280;23175;-33.706;151.094;2023-01-08T03:25:50;99500.82;;;21.50;31.03
37291;BME280;23175;-33.706;151.094;2023-01-08T03:28:23;99503.82;;;22.35;30.72
37291;BME280;23175;-33.706;151.094;2023-01-08T03:30:55;99508.89;;;21.18;31.81
37291;BME280;23175;-33.706;151.094;2023-01-08T03:33:27;99505.60;;;20.21;33.30
37291;BME280;23175;-33.706;151.094;2023-01-08T03:36:02;99504.13;;;21.88;32.01
37291;BME280;23175;-33.706;151.094;2023-01-08T03:38:37;99502.51;;;20.26;34.28
37291;BME280;23175;-33.706;151.094;2023-01-08T03:41:12;99504.36;;;19.35;32.68
37291;BME280;23175;-33.706;151.094;2023-01-08T03:43:43;99503.88;;;22.35;31.02
37291;BME280;23175;-33.706;151.094;2023-01-08T03:46:17;99502.78;;;20.82;30.99
37291;BME280;23175;-33.706;151.094;2023-01-08T03:48:50;99500.93;;;21.67;31.47
37291;BME280;23175;-33.706;151.094;2023-01-08T03:51:20;99507.83;;;20.03;33.49
37291;BME280;23175;-33.706;151.094;2023-01-08T03:53:55;99500.37;;;20.91;31.67
37291;BME280;23175;-33.706;151.094;2023-01-08T03:56:27;99499.02;;;20.08;34.31
37291;BME280;23175;-33.706;151.094;2023-01-08T03:58:57;99506.44;;;20.88;33.32
37291;BME280;23175;-33.706;151.094;2023-01-08T04:01:27;99502.20;;;19.09;36.16
37291;BME280;23175;-33.706;151.094;2023-01-08T04:03:57;99505.05;;;20.91;33.77
37291;BME280;23175;-33.706;151.094;2023-01-08T04:06:27;99499.96;;;19.09;35.23
37291;BME280;23175;-33.706;151.094;2023-01-08T04:08:58;99500.74;;;20.47;35.22
37291;BME280;23175;-33.706;151.094;2023-01-08T04:11:28;99495.00;;;21.02;33.54
37291;BME280;23175;-33.706;151.094;2023-01-08T04:13:58;99493.49;;;19.35;35.93
37291;BME280;23175;-33.706;151.094;2023-01-08T04:16:28;99491.27;;;20.60;33.78
37291;BME280;23175;-33.706;151.094;2023-01-08T04:18:58;99488.19;;;19.65;35.10
37291;BME280;23175;-33.706;151.094;2023-01-08T04:21:28;99490.66;;;19.90;35.18
37291;BME280;23175;-33.706;151.094;2023-01-08T04:23:58;99493.08;;;20.73;33.98
37291;BME280;23175;-33.706;151.094;2023-01-08T04:26:28;99501.56;;;20.11;33.94
37291;BME280;23175;-33.706;151.094;2023-01-08T04:28:57;99497.23;;;20.40;33.71
37291;BME280;23175;-33.706;151.094;2023-01-08T04:31:28;99499.25;;;20.05;35.62
37291;BME280;23175;-33.706;151.094;2023-01-08T04:33:57;99492.28;;;20.43;32.65
37291;BME280;23175;-33.706;151.094;2023-01-08T04:36:27;99494.77;;;21.31;31.62
37291;BME280;23175;-33.706;151.094;2023-01-08T04:38:57;99495.06;;;21.33;33.37
37291;BME280;23175;-33.706;151.094;2023-01-08T04:41:27;99494.68;;;19.61;37.73
37291;BME280;23175;-33.706;151.094;2023-01-08T04:43:57;99497.88;;;20.07;36.43
37291;BME280;23175;-33.706;151.094;2023-01-08T04:46:27;99494.39;;;21.00;35.69
37291;BME280;23175;-33.706;151.094;2023-01-08T04:48:57;99485.32;;;20.26;35.95
37291;BME280;23175;-33.706;151.094;2023-01-08T04:51:28;99484.47;;;19.22;39.50
37291;BME280;23175;-33.706;151.094;2023-01-08T04:53:58;99491.64;;;19.49;36.38
37291;BME280;23175;-33.706;151.094;2023-01-08T04:56:28;99485.27;;;20.14;35.93
37291;BME280;23175;-33.706;151.094;2023-01-08T04:59:02;99478.53;;;21.34;35.30
37291;BME280;23175;-33.706;151.094;2023-01-08T05:01:32;99477.45;;;21.60;34.59
37291;BME280;23175;-33.706;151.094;2023-01-08T05:04:03;99480.07;;;20.30;36.26
37291;BME280;23175;-33.706;151.094;2023-01-08T05:06:34;99483.87;;;22.31;33.83
37291;BME280;23175;-33.706;151.094;2023-01-08T05:09:04;99483.67;;;20.21;36.54
37291;BME280;23175;-33.706;151.094;2023-01-08T05:11:34;99481.32;;;19.54;36.67
37291;BME280;23175;-33.706;151.094;2023-01-08T05:14:04;99484.45;;;19.44;37.65
37291;BME280;23175;-33.706;151.094;2023-01-08T05:16:34;99485.70;;;19.94;37.98
37291;BME280;23175;-33.706;151.094;2023-01-08T05:19:04;99485.70;;;19.38;38.65
37291;BME280;23175;-33.706;151.094;2023-01-08T05:21:35;99480.00;;;19.94;37.53
37291;BME280;23175;-33.706;151.094;2023-01-08T05:24:05;99478.12;;;20.64;38.02
37291;BME280;23175;-33.706;151.094;2023-01-08T05:26:35;99481.68;;;20.14;38.28
37291;BME280;23175;-33.706;151.094;2023-01-08T05:29:05;99478.68;;;20.47;36.79
37291;BME280;23175;-33.706;151.094;2023-01-08T05:31:35;99483.00;;;19.38;38.63
37291;BME280;23175;-33.706;151.094;2023-01-08T05:34:05;99482.45;;;19.65;39.14
37291;BME280;23175;-33.706;151.094;2023-01-08T05:36:35;99476.42;;;18.24;41.01
37291;BME280;23175;-33.706;151.094;2023-01-08T05:39:05;99478.40;;;20.71;37.25
37291;BME280;23175;-33.706;151.094;2023-01-08T05:41:35;99481.06;;;19.46;38.92
37291;BME280;23175;-33.706;151.094;2023-01-08T05:44:05;99479.79;;;18.90;39.32
37291;BME280;23175;-33.706;151.094;2023-01-08T05:46:35;99479.64;;;19.41;39.25
37291;BME280;23175;-33.706;151.094;2023-01-08T05:49:05;99471.73;;;18.57;40.39
37291;BME280;23175;-33.706;151.094;2023-01-08T05:51:35;99473.09;;;21.09;37.54
37291;BME280;23175;-33.706;151.094;2023-01-08T05:54:05;99474.43;;;19.52;40.12
37291;BME280;23175;-33.706;151.094;2023-01-08T05:56:35;99480.66;;;20.64;37.45
37291;BME280;23175;-33.706;151.094;2023-01-08T05:59:05;99480.87;;;20.66;37.87
37291;BME280;23175;-33.706;151.094;2023-01-08T06:01:36;99472.51;;;19.12;39.78
37291;BME280;23175;-33.706;151.094;2023-01-08T06:04:06;99472.02;;;20.40;37.25
37291;BME280;23175;-33.706;151.094;2023-01-08T06:06:37;99468.63;;;18.38;39.61
37291;BME280;23175;-33.706;151.094;2023-01-08T06:09:07;99472.24;;;17.60;41.80
37291;BME280;23175;-33.706;151.094;2023-01-08T06:11:37;99466.50;;;19.46;39.31
37291;BME280;23175;-33.706;151.094;2023-01-08T06:14:07;99463.05;;;20.73;36.85
37291;BME280;23175;-33.706;151.094;2023-01-08T06:16:37;99462.63;;;18.74;39.86
37291;BME280;23175;-33.706;151.094;2023-01-08T06:19:08;99456.36;;;19.59;37.59
37291;BME280;23175;-33.706;151.094;2023-01-08T06:21:38;99464.11;;;17.75;40.82
37291;BME280;23175;-33.706;151.094;2023-01-08T06:24:08;99455.42;;;19.08;40.15
37291;BME280;23175;-33.706;151.094;2023-01-08T06:26:38;99455.01;;;21.25;36.09
37291;BME280;23175;-33.706;151.094;2023-01-08T06:29:08;99453.84;;;19.09;38.36
37291;BME280;23175;-33.706;151.094;2023-01-08T06:31:38;99459.69;;;20.06;37.81
37291;BME280;23175;-33.706;151.094;2023-01-08T06:34:08;99457.63;;;20.14;37.76
37291;BME280;23175;-33.706;151.094;2023-01-08T06:36:38;99453.39;;;20.28;37.60
37291;BME280;23175;-33.706;151.094;2023-01-08T06:39:08;99451.31;;;18.57;40.27
37291;BME280;23175;-33.706;151.094;2023-01-08T06:41:38;99461.41;;;20.01;37.70
37291;BME280;23175;-33.706;151.094;2023-01-08T06:44:08;99454.80;;;19.88;38.83
37291;BME280;23175;-33.706;151.094;2023-01-08T06:46:38;99454.93;;;20.66;36.95
37291;BME280;23175;-33.706;151.094;2023-01-08T06:49:08;99453.93;;;19.42;38.58
37291;BME280;23175;-33.706;151.094;2023-01-08T06:51:39;99453.24;;;18.37;41.12
37291;BME280;23175;-33.706;151.094;2023-01-08T06:54:09;99443.09;;;19.43;38.85
37291;BME280;23175;-33.706;151.094;2023-01-08T06:56:40;99448.11;;;19.98;38.16
37291;BME280;23175;-33.706;151.094;2023-01-08T06:59:10;99452.65;;;18.65;40.31
37291;BME280;23175;-33.706;151.094;2023-01-08T07:01:40;99455.20;;;20.46;38.82
37291;BME280;23175;-33.706;151.094;2023-01-08T07:04:10;99450.86;;;18.38;40.33
37291;BME280;23175;-33.706;151.094;2023-01-08T07:06:40;99456.26;;;19.83;39.39
37291;BME280;23175;-33.706;151.094;2023-01-08T07:09:12;99454.12;;;19.77;38.21
37291;BME280;23175;-33.706;151.094;2023-01-08T07:11:43;99457.75;;;18.69;40.81
37291;BME280;23175;-33.706;151.094;2023-01-08T07:14:13;99464.70;;;17.92;41.61
37291;BME280;23175;-33.706;151.094;2023-01-08T07:16:43;99465.41;;;19.79;39.63
37291;BME280;23175;-33.706;151.094;2023-01-08T07:19:13;99467.18;;;18.76;40.75
37291;BME280;23175;-33.706;151.094;2023-01-08T07:21:43;99474.16;;;20.59;38.70
37291;BME280;23175;-33.706;151.094;2023-01-08T07:24:13;99474.44;;;20.13;39.12
37291;BME280;23175;-33.706;151.094;2023-01-08T07:26:43;99470.68;;;20.70;38.61
37291;BME280;23175;-33.706;151.094;2023-01-08T07:29:13;99475.06;;;19.90;39.88
37291;BME280;23175;-33.706;151.094;2023-01-08T07:31:43;99476.88;;;18.84;41.31
37291;BME280;23175;-33.706;151.094;2023-01-08T07:34:14;99477.65;;;19.18;41.13
37291;BME280;23175;-33.706;151.094;2023-01-08T07:36:44;99477.32;;;19.10;40.41
37291;BME280;23175;-33.706;151.094;2023-01-08T07:39:14;99483.48;;;19.56;40.18
37291;BME280;23175;-33.706;151.094;2023-01-08T07:41:44;99485.27;;;17.64;42.80
37291;BME280;23175;-33.706;151.094;2023-01-08T07:44:14;99485.45;;;18.42;40.77
37291;BME280;23175;-33.706;151.094;2023-01-08T07:46:44;99487.99;;;20.23;39.14
37291;BME280;23175;-33.706;151.094;2023-01-08T07:49:14;99486.70;;;18.26;41.12
37291;BME280;23175;-33.706;151.094;2023-01-08T07:51:44;99486.74;;;18.91;39.63
37291;BME280;23175;-33.706;151.094;2023-01-08T07:54:14;99489.04;;;18.35;41.44
37291;BME280;23175;-33.706;151.094;2023-01-08T07:56:44;99488.59;;;18.72;39.86
37291;BME280;23175;-33.706;151.094;2023-01-08T07:59:15;99488.59;;;18.44;40.49
37291;BME280;23175;-33.706;151.094;2023-01-08T08:01:45;99492.39;;;18.51;39.81
37291;BME280;23175;-33.706;151.094;2023-01-08T08:04:15;99494.53;;;18.80;40.23
37291;BME280;23175;-33.706;151.094;2023-01-08T08:06:46;99504.22;;;20.20;38.30
37291;BME280;23175;-33.706;151.094;2023-01-08T08:09:15;99499.78;;;17.95;40.89
37291;BME280;23175;-33.706;151.094;2023-01-08T08:11:45;99501.03;;;19.37;39.23
37291;BME280;23175;-33.706;151.094;2023-01-08T08:14:15;99503.46;;;21.08;36.93
37291;BME280;23175;-33.706;151.094;2023-01-08T08:16:45;99504.32;;;19.45;38.34
37291;BME280;23175;-33.706;151.094;2023-01-08T08:19:15;99510.11;;;18.17;40.87
37291;BME280;23175;-33.706;151.094;2023-01-08T08:21:45;99513.44;;;19.70;37.41
37291;BME280;23175;-33.706;151.094;2023-01-08T08:24:15;99512.34;;;20.28;38.22
37291;BME280;23175;-33.706;151.094;2023-01-08T08:26:46;99511.27;;;18.86;39.39
37291;BME280;23175;-33.706;151.094;2023-01-08T08:29:16;99509.90;;;19.10;39.44
37291;BME280;23175;-33.706;151.094;2023-01-08T08:31:46;99513.32;;;19.71;38.63
37291;BME280;23175;-33.706;151.094;2023-01-08T08:40:07;99515.45;;;19.75;39.48
37291;BME280;23175;-33.706;151.094;2023-01-08T08:42:38;99517.92;;;19.91;39.36
37291;BME280;23175;-33.706;151.094;2023-01-08T08:45:08;99517.40;;;21.03;37.88
37291;BME280;23175;-33.706;151.094;2023-01-08T08:47:38;99519.68;;;21.37;37.48
37291;BME280;23175;-33.706;151.094;2023-01-08T08:50:09;99523.03;;;19.61;39.88
37291;BME280;23175;-33.706;151.094;2023-01-08T08:52:40;99529.34;;;21.73;36.43
37291;BME280;23175;-33.706;151.094;2023-01-08T08:55:10;99532.99;;;21.54;37.80
37291;BME280;23175;-33.706;151.094;2023-01-08T08:57:40;99534.60;;;20.18;39.00
37291;BME280;23175;-33.706;151.094;2023-01-08T09:00:11;99537.07;;;19.69;39.77
37291;BME280;23175;-33.706;151.094;2023-01-08T09:02:41;99538.35;;;20.44;38.76
37291;BME280;23175;-33.706;151.094;2023-01-08T09:05:11;99538.41;;;20.71;38.73
37291;BME280;23175;-33.706;151.094;2023-01-08T09:07:41;99539.39;;;19.80;39.19
37291;BME280;23175;-33.706;151.094;2023-01-08T09:10:11;99539.61;;;21.42;37.49
37291;BME280;23175;-33.706;151.094;2023-01-08T09:12:41;99542.16;;;21.64;37.07
37291;BME280;23175;-33.706;151.094;2023-01-08T09:15:12;99544.92;;;21.06;37.40
37291;BME280;23175;-33.706;151.094;2023-01-08T09:17:41;99542.96;;;19.04;40.33
37291;BME280;23175;-33.706;151.094;2023-01-08T09:20:11;99548.28;;;20.76;37.87
37291;BME280;23175;-33.706;151.094;2023-01-08T09:22:42;99552.57;;;20.75;37.70
37291;BME280;23175;-33.706;151.094;2023-01-08T09:25:12;99556.17;;;20.43;38.73
37291;BME280;23175;-33.706;151.094;2023-01-08T09:27:42;99559.10;;;22.14;36.91
37291;BME280;23175;-33.706;151.094;2023-01-08T09:30:13;99559.31;;;22.24;37.26
37291;BME280;23175;-33.706;151.094;2023-01-08T09:32:43;99561.61;;;22.19;36.90
37291;BME280;23175;-33.706;151.094;2023-01-08T09:35:13;99566.45;;;21.60;37.42
37291;BME280;23175;-33.706;151.094;2023-01-08T09:37:43;99564.51;;;20.94;37.83
37291;BME280;23175;-33.706;151.094;2023-01-08T09:40:16;99565.88;;;20.64;39.77
37291;BME280;23175;-33.706;151.094;2023-01-08T09:42:52;99566.76;;;22.30;36.47
37291;BME280;23175;-33.706;151.094;2023-01-08T09:45:27;99568.57;;;21.26;37.88
37291;BME280;23175;-33.706;151.094;2023-01-08T09:48:01;99569.53;;;19.04;40.38
37291;BME280;23175;-33.706;151.094;2023-01-08T09:50:34;99573.23;;;21.70;37.38
37291;BME280;23175;-33.706;151.094;2023-01-08T09:53:04;99576.70;;;20.06;39.61
37291;BME280;23175;-33.706;151.094;2023-01-08T09:55:34;99577.51;;;19.43;40.96
37291;BME280;23175;-33.706;151.094;2023-01-08T09:58:04;99581.37;;;21.45;37.90
37291;BME280;23175;-33.706;151.094;2023-01-08T10:00:37;99584.00;;;21.16;39.00
37291;BME280;23175;-33.706;151.094;2023-01-08T10:03:11;99587.69;;;20.77;39.11
37291;BME280;23175;-33.706;151.094;2023-01-08T10:05:41;99590.90;;;21.77;38.49
37291;BME280;23175;-33.706;151.094;2023-01-08T10:08:14;99587.26;;;18.90;42.72
37291;BME280;23175;-33.706;151.094;2023-01-08T10:10:44;99590.67;;;20.47;39.67
37291;BME280;23175;-33.706;151.094;2023-01-08T10:13:15;99593.79;;;21.58;38.93
37291;BME280;23175;-33.706;151.094;2023-01-08T10:15:46;99593.41;;;21.15;38.68
37291;BME280;23175;-33.706;151.094;2023-01-08T10:18:19;99592.00;;;21.92;37.85
37291;BME280;23175;-33.706;151.094;2023-01-08T10:20:51;99595.43;;;21.79;38.06
37291;BME280;23175;-33.706;151.094;2023-01-08T10:23:22;99596.50;;;21.05;38.93
37291;BME280;23175;-33.706;151.094;2023-01-08T10:25:54;99600.40;;;22.16;37.90
37291;BME280;23175;-33.706;151.094;2023-01-08T10:28:26;99602.67;;;22.22;38.11
37291;BME280;23175;-33.706;151.094;2023-01-08T10:31:04;99604.83;;;22.11;38.23
37291;BME280;23175;-33.706;151.094;2023-01-08T10:33:40;99607.94;;;22.23;37.95
37291;BME280;23175;-33.706;151.094;2023-01-08T10:36:14;99609.86;;;22.10;37.67
37291;BME280;23175;-33.706;151.094;2023-01-08T10:38:51;99613.33;;;21.17;38.18
37291;BME280;23175;-33.706;151.094;2023-01-08T10:41:24;99618.12;;;21.54;37.95
37291;BME280;23175;-33.706;151.094;2023-01-08T10:43:57;99620.91;;;21.77;38.20
37291;BME280;23175;-33.706;151.094;2023-01-08T10:46:31;99619.10;;;21.59;38.15
37291;BME280;23175;-33.706;151.094;2023-01-08T10:49:04;99625.04;;;21.42;37.92
37291;BME280;23175;-33.706;151.094;2023-01-08T10:51:35;99626.41;;;21.61;38.30
37291;BME280;23175;-33.706;151.094;2023-01-08T10:54:22;99626.19;;;21.62;38.43
37291;BME280;23175;-33.706;151.094;2023-01-08T10:56:54;99626.49;;;21.53;38.95
37291;BME280;23175;-33.706;151.094;2023-01-08T10:59:25;99625.64;;;21.45;38.91
37291;BME280;23175;-33.706;151.094;2023-01-08T11:01:56;99625.70;;;21.25;39.11
37291;BME280;23175;-33.706;151.094;2023-01-08T11:04:30;99626.82;;;21.25;39.27
37291;BME280;23175;-33.706;151.094;2023-01-08T11:07:03;99627.44;;;21.74;38.75
37291;BME280;23175;-33.706;151.094;2023-01-08T11:09:40;99626.92;;;21.23;39.07
37291;BME280;23175;-33.706;151.094;2023-01-08T11:12:29;99627.48;;;21.04;39.41
37291;BME280;23175;-33.706;151.094;2023-01-08T11:15:01;99632.20;;;21.22;39.07
37291;BME280;23175;-33.706;151.094;2023-01-08T11:17:33;99631.34;;;21.73;38.99
37291;BME280;23175;-33.706;151.094;2023-01-08T11:20:21;99634.64;;;21.19;38.74
37291;BME280;23175;-33.706;151.094;2023-01-08T11:22:51;99635.88;;;21.15;39.15
37291;BME280;23175;-33.706;151.094;2023-01-08T11:25:34;99636.87;;;20.94;39.64
37291;BME280;23175;-33.706;151.094;2023-01-08T11:28:05;99634.36;;;20.85;39.52
37291;BME280;23175;-33.706;151.094;2023-01-08T11:30:37;99636.38;;;21.39;39.51
37291;BME280;23175;-33.706;151.094;2023-01-08T11:33:11;99642.06;;;20.14;40.31
37291;BME280;23175;-33.706;151.094;2023-01-08T11:35:47;99639.59;;;20.25;40.22
37291;BME280;23175;-33.706;151.094;2023-01-08T11:38:18;99636.45;;;21.05;40.21
37291;BME280;23175;-33.706;151.094;2023-01-08T11:40:52;99635.41;;;20.47;40.18
37291;BME280;23175;-33.706;151.094;2023-01-08T11:43:31;99637.26;;;20.95;40.20
37291;BME280;23175;-33.706;151.094;2023-01-08T11:46:18;99640.76;;;20.27;40.44
37291;BME280;23175;-33.706;151.094;2023-01-08T11:49:12;99638.90;;;20.71;40.46
37291;BME280;23175;-33.706;151.094;2023-01-08T11:51:57;99642.25;;;20.35;40.61
37291;BME280;23175;-33.706;151.094;2023-01-08T11:54:48;99642.31;;;20.54;40.57
37291;BME280;23175;-33.706;151.094;2023-01-08T11:57:29;99645.79;;;20.55;40.55
37291;BME280;23175;-33.706;151.094;2023-01-08T12:00:17;99650.50;;;20.56;40.23
37291;BME280;23175;-33.706;151.094;2023-01-08T12:02:55;99654.36;;;20.71;40.24
37291;BME280;23175;-33.706;151.094;2023-01-08T12:05:29;99653.67;;;20.35;40.73
37291;BME280;23175;-33.706;151.094;2023-01-08T12:08:04;99658.69;;;19.65;40.73
37291;BME280;23175;-33.706;151.094;2023-01-08T12:10:47;99657.78;;;20.27;40.82
37291;BME280;23175;-33.706;151.094;2023-01-08T12:13:38;99656.74;;;20.25;40.89
37291;BME280;23175;-33.706;151.094;2023-01-08T12:16:21;99661.37;;;20.24;40.86
37291;BME280;23175;-33.706;151.094;2023-01-08T12:19:06;99661.53;;;19.86;41.57
37291;BME280;23175;-33.706;151.094;2023-01-08T12:21:57;99661.23;;;20.44;41.28
37291;BME280;23175;-33.706;151.094;2023-01-08T12:24:48;99660.04;;;20.33;41.32
37291;BME280;23175;-33.706;151.094;2023-01-08T12:27:30;99655.27;;;19.91;41.46
37291;BME280;23175;-33.706;151.094;2023-01-08T12:30:11;99651.43;;;19.69;41.70
37291;BME280;23175;-33.706;151.094;2023-01-08T12:32:48;99649.54;;;19.41;42.15
37291;BME280;23175;-33.706;151.094;2023-01-08T12:35:22;99652.03;;;19.97;41.98
37291;BME280;23175;-33.706;151.094;2023-01-08T12:37:58;99653.07;;;20.00;41.87
37291;BME280;23175;-33.706;151.094;2023-01-08T12:40:34;99654.17;;;20.45;41.61
37291;BME280;23175;-33.706;151.094;2023-01-08T12:43:13;99651.11;;;20.00;41.90
37291;BME280;23175;-33.706;151.094;2023-01-08T12:45:46;99649.87;;;19.60;42.08
37291;BME280;23175;-33.706;151.094;2023-01-08T12:48:20;99648.29;;;20.03;41.98
37291;BME280;23175;-33.706;151.094;2023-01-08T12:50:58;99646.55;;;20.19;41.82
37291;BME280;23175;-33.706;151.094;2023-01-08T12:53:39;99640.84;;;20.10;41.96
37291;BME280;23175;-33.706;151.094;2023-01-08T12:56:14;99634.69;;;19.79;41.77
37291;BME280;23175;-33.706;151.094;2023-01-08T12:59:00;99631.68;;;19.77;41.69
37291;BME280;23175;-33.706;151.094;2023-01-08T13:01:44;99626.68;;;19.67;41.90
37291;BME280;23175;-33.706;151.094;2023-01-08T13:04:16;99623.09;;;19.91;42.32